createdAt,value
2022-08-20T00:00:23.509Z,66.66
2022-08-20T00:03:41.669Z,66.64
2022-08-20T00:06:48.815Z,66.67
2022-08-20T00:09:51.801Z,66.77
2022-08-20T00:12:55.690Z,66.87
2022-08-20T00:15:59.608Z,66.78
2022-08-20T00:19:07.313Z,66.78
2022-08-20T00:22:10.219Z,66.73
2022-08-20T00:25:14.008Z,66.74
2022-08-20T00:28:17.446Z,66.64
2022-08-20T00:31:22.950Z,66.73
2022-08-20T00:34:25.964Z,66.72
2022-08-20T00:37:28.901Z,66.71
2022-08-20T00:40:45.701Z,66.73
2022-08-20T00:44:05.001Z,66.74
2022-08-20T00:47:09.300Z,66.84
2022-08-20T00:50:15.531Z,66.75
2022-08-20T00:53:23.590Z,66.76
2022-08-20T00:56:26.746Z,66.89
2022-08-20T00:59:31.490Z,66.93
2022-08-20T01:02:35.270Z,67.01
2022-08-20T01:05:40.151Z,67.15
2022-08-20T01:08:43.208Z,67.09
2022-08-20T01:11:46.485Z,67.20
2022-08-20T01:14:49.702Z,67.42
2022-08-20T01:17:57.962Z,67.21
2022-08-20T01:21:06.025Z,67.29
2022-08-20T01:24:16.670Z,67.18
2022-08-20T01:27:19.883Z,67.29
2022-08-20T01:30:26.351Z,67.41
2022-08-20T01:33:29.460Z,67.37
2022-08-20T01:36:43.034Z,67.35
2022-08-20T01:39:48.539Z,67.41
2022-08-20T01:42:58.980Z,67.30
2022-08-20T01:46:04.651Z,67.37
2022-08-20T01:49:15.667Z,67.39
2022-08-20T01:52:36.636Z,67.43
2022-08-20T01:55:39.653Z,67.43
2022-08-20T01:58:49.745Z,67.50
2022-08-20T02:02:00.234Z,67.46
2022-08-20T02:05:04.658Z,67.48
2022-08-20T02:08:07.664Z,67.54
2022-08-20T02:11:12.958Z,67.62
2022-08-20T02:14:16.792Z,67.60
2022-08-20T02:17:22.928Z,67.63
2022-08-20T02:20:30.360Z,67.66
2022-08-20T02:23:35.819Z,67.59
2022-08-20T02:26:39.745Z,67.70
2022-08-20T02:29:42.746Z,67.63
2022-08-20T02:32:45.766Z,67.55
2022-08-20T02:35:49.906Z,67.59
2022-08-20T02:38:52.963Z,67.70
2022-08-20T02:41:56.072Z,67.77
2022-08-20T02:44:59.016Z,67.84
2022-08-20T02:48:01.948Z,67.93
2022-08-20T02:51:06.929Z,67.75
2022-08-20T02:54:10.262Z,67.83
2022-08-20T02:57:15.117Z,67.85
2022-08-20T03:00:20.929Z,67.85
2022-08-20T03:03:24.545Z,67.88
2022-08-20T03:06:28.087Z,67.98
2022-08-20T03:09:31.019Z,67.96
2022-08-20T03:12:34.339Z,68.07
2022-08-20T03:15:37.500Z,67.91
2022-08-20T03:18:44.432Z,68.11
2022-08-20T03:21:47.741Z,68.19
2022-08-20T03:24:50.661Z,68.12
2022-08-20T03:27:57.500Z,68.25
2022-08-20T03:31:01.413Z,68.18
2022-08-20T03:34:04.518Z,68.11
2022-08-20T03:37:07.510Z,68.05
2022-08-20T03:40:15.583Z,68.11
2022-08-20T03:43:18.838Z,68.11
2022-08-20T03:46:23.076Z,68.13
2022-08-20T03:49:26.824Z,68.17
2022-08-20T03:52:29.842Z,68.25
2022-08-20T03:55:32.975Z,68.24
2022-08-20T03:58:36.625Z,68.21
2022-08-20T04:01:46.364Z,68.25
2022-08-20T04:04:49.663Z,68.35
2022-08-20T04:07:52.751Z,68.31
2022-08-20T04:10:57.819Z,68.39
2022-08-20T04:14:00.672Z,68.36
2022-08-20T04:17:10.676Z,68.57
2022-08-20T04:20:19.229Z,68.46
2022-08-20T04:23:22.568Z,68.58
2022-08-20T04:26:25.944Z,68.60
2022-08-20T04:29:32.490Z,68.63
2022-08-20T04:32:37.005Z,68.75
2022-08-20T04:35:41.259Z,68.78
2022-08-20T04:38:47.807Z,68.86
2022-08-20T04:41:53.155Z,68.75
2022-08-20T04:44:56.013Z,68.85
2022-08-20T04:48:05.741Z,69.03
2022-08-20T04:51:09.732Z,69.19
2022-08-20T04:54:14.348Z,69.11
2022-08-20T04:57:17.295Z,69.35
2022-08-20T05:00:20.292Z,69.36
2022-08-20T05:03:24.880Z,69.38
2022-08-20T05:06:31.146Z,69.54
2022-08-20T05:09:35.078Z,69.53
2022-08-20T05:12:56.829Z,69.58
2022-08-20T05:16:02.066Z,69.61
2022-08-20T05:19:07.018Z,69.77
2022-08-20T05:22:09.958Z,69.66
2022-08-20T05:25:13.038Z,69.75
2022-08-20T05:28:23.168Z,69.91
2022-08-20T05:31:31.375Z,69.95
2022-08-20T05:34:37.070Z,69.95
2022-08-20T05:37:43.761Z,70.14
2022-08-20T05:40:48.022Z,70.16
2022-08-20T05:43:51.537Z,70.24
2022-08-20T05:46:54.690Z,70.17
2022-08-20T05:49:57.953Z,70.41
2022-08-20T05:53:02.013Z,70.33
2022-08-20T05:56:05.114Z,70.53
2022-08-20T05:59:09.654Z,70.52
2022-08-20T06:02:30.985Z,70.50
2022-08-20T06:05:34.715Z,70.62
2022-08-20T06:08:37.915Z,70.67
2022-08-20T06:11:40.802Z,70.76
2022-08-20T06:14:47.373Z,70.78
2022-08-20T06:17:55.105Z,70.87
2022-08-20T06:21:01.515Z,71.00
2022-08-20T06:24:04.907Z,71.07
2022-08-20T06:27:07.941Z,71.13
2022-08-20T06:30:13.717Z,71.14
2022-08-20T06:33:16.692Z,71.09
2022-08-20T06:36:20.082Z,71.25
2022-08-20T06:39:24.552Z,71.29
2022-08-20T06:42:27.501Z,71.32
2022-08-20T06:45:32.923Z,71.28
2022-08-20T06:48:36.053Z,71.18
2022-08-20T06:51:41.337Z,71.12
2022-08-20T06:54:45.912Z,71.11
2022-08-20T06:57:59.956Z,71.29
2022-08-20T07:01:09.488Z,71.27
2022-08-20T07:04:13.748Z,71.24
2022-08-20T07:07:20.622Z,71.21
2022-08-20T07:10:25.278Z,71.12
2022-08-20T07:13:29.308Z,71.01
2022-08-20T07:16:32.392Z,71.04
2022-08-20T07:19:38.443Z,70.95
2022-08-20T07:22:43.589Z,70.79
2022-08-20T07:25:46.595Z,70.72
2022-08-20T07:28:49.574Z,70.68
2022-08-20T07:32:10.854Z,70.59
2022-08-20T07:35:18.109Z,70.40
2022-08-20T07:38:25.326Z,70.25
2022-08-20T07:41:28.551Z,70.25
2022-08-20T07:44:31.497Z,70.23
2022-08-20T07:47:35.895Z,70.16
2022-08-20T07:50:43.011Z,70.18
2022-08-20T07:53:47.732Z,70.11
2022-08-20T07:56:50.655Z,70.15
2022-08-20T07:59:53.584Z,70.11
2022-08-20T08:02:56.566Z,70.24
2022-08-20T08:06:00.442Z,70.17
2022-08-20T08:09:10.071Z,70.18
2022-08-20T08:12:15.063Z,70.12
2022-08-20T08:15:23.994Z,69.96
2022-08-20T08:18:31.989Z,69.80
2022-08-20T08:21:35.042Z,69.71
2022-08-20T08:24:39.480Z,69.52
2022-08-20T08:27:43.112Z,69.53
2022-08-20T08:30:48.212Z,69.69
2022-08-20T08:33:51.466Z,69.70
2022-08-20T08:36:54.384Z,69.68
2022-08-20T08:39:59.470Z,69.53
2022-08-20T08:43:04.395Z,69.13
2022-08-20T08:46:11.342Z,68.61
2022-08-20T08:49:18.402Z,67.80
2022-08-20T08:52:26.273Z,67.75
2022-08-20T08:55:31.210Z,67.60
2022-08-20T08:58:37.154Z,67.22
2022-08-20T09:01:54.324Z,67.20
2022-08-20T09:05:02.267Z,66.74
2022-08-20T09:08:14.966Z,66.43
2022-08-20T09:11:22.517Z,66.31
2022-08-20T09:14:25.548Z,66.27
2022-08-20T09:17:28.565Z,66.16
2022-08-20T09:20:31.546Z,65.92
2022-08-20T09:23:34.670Z,65.64
2022-08-20T09:26:39.283Z,65.57
2022-08-20T09:29:42.682Z,65.81
2022-08-20T09:32:46.631Z,65.97
2022-08-20T09:35:49.655Z,66.10
2022-08-20T09:38:52.574Z,66.37
2022-08-20T09:41:55.442Z,66.42
2022-08-20T09:45:06.326Z,66.30
2022-08-20T09:48:14.072Z,66.14
2022-08-20T09:51:17.484Z,66.06
2022-08-20T09:54:23.025Z,66.32
2022-08-20T09:57:26.606Z,66.04
2022-08-20T10:00:29.790Z,66.15
2022-08-20T10:03:32.751Z,66.25
2022-08-20T10:06:40.769Z,66.37
2022-08-20T10:09:43.917Z,66.19
2022-08-20T10:12:48.129Z,66.06
2022-08-20T10:16:13.441Z,65.68
2022-08-20T10:19:16.583Z,65.33
2022-08-20T10:22:19.508Z,65.15
2022-08-20T10:25:23.107Z,65.35
2022-08-20T10:28:26.026Z,65.29
2022-08-20T10:31:28.992Z,65.32
2022-08-20T10:34:32.083Z,65.46
2022-08-20T10:37:36.478Z,65.75
2022-08-20T10:40:39.592Z,65.53
2022-08-20T10:43:42.614Z,65.33
2022-08-20T10:46:45.866Z,65.63
2022-08-20T10:49:53.850Z,65.54
2022-08-20T10:52:56.865Z,65.92
2022-08-20T10:56:00.016Z,65.80
2022-08-20T10:59:03.540Z,65.17
2022-08-20T11:02:06.575Z,65.28
2022-08-20T11:05:09.955Z,65.17
2022-08-20T11:08:13.296Z,65.24
2022-08-20T11:11:16.208Z,65.28
2022-08-20T11:14:19.184Z,65.31
2022-08-20T11:17:28.854Z,65.31
2022-08-20T11:20:32.220Z,65.52
2022-08-20T11:23:35.406Z,65.29
2022-08-20T11:26:38.424Z,65.34
2022-08-20T11:29:41.295Z,65.14
2022-08-20T11:32:46.543Z,65.17
2022-08-20T11:35:50.275Z,65.09
2022-08-20T11:38:53.714Z,65.29
2022-08-20T11:41:56.782Z,65.04
2022-08-20T11:44:59.722Z,65.14
2022-08-20T11:48:02.788Z,65.25
2022-08-20T11:51:05.931Z,65.05
2022-08-20T11:54:08.892Z,64.91
2022-08-20T11:57:23.382Z,64.65
2022-08-20T12:00:32.199Z,64.60
2022-08-20T12:03:37.327Z,64.39
2022-08-20T12:06:40.293Z,64.41
2022-08-20T12:09:51.170Z,64.54
2022-08-20T12:12:55.335Z,64.43
2022-08-20T12:15:58.922Z,64.48
2022-08-20T12:19:01.878Z,64.65
2022-08-20T12:22:21.341Z,64.95
2022-08-20T12:25:27.980Z,64.97
2022-08-20T12:28:31.428Z,65.19
2022-08-20T12:31:34.457Z,65.30
2022-08-20T12:34:39.076Z,65.49
2022-08-20T12:37:43.185Z,65.96
2022-08-20T12:40:46.638Z,65.93
2022-08-20T12:43:49.519Z,66.15
2022-08-20T12:46:52.399Z,66.39
2022-08-20T12:50:05.554Z,66.53
2022-08-20T12:53:09.316Z,66.67
2022-08-20T12:56:12.158Z,66.69
2022-08-20T12:59:15.377Z,66.96
2022-08-20T13:02:18.854Z,66.92
2022-08-20T13:05:23.288Z,67.07
2022-08-20T13:08:26.266Z,67.32
2022-08-20T13:11:29.719Z,67.44
2022-08-20T13:14:32.676Z,67.58
2022-08-20T13:17:38.952Z,67.71
2022-08-20T13:20:42.603Z,67.70
2022-08-20T13:23:45.598Z,67.76
2022-08-20T13:26:49.979Z,67.98
2022-08-20T13:29:58.544Z,68.00
2022-08-20T13:33:02.259Z,68.01
2022-08-20T13:36:05.857Z,68.06
2022-08-20T13:39:08.922Z,67.92
2022-08-20T13:42:13.457Z,68.02
2022-08-20T13:45:16.425Z,67.90
2022-08-20T13:48:19.367Z,68.06
2022-08-20T13:51:22.295Z,68.21
2022-08-20T13:54:30.246Z,68.09
2022-08-20T13:57:34.237Z,68.12
2022-08-20T14:00:37.261Z,68.23
2022-08-20T14:03:40.289Z,68.23
2022-08-20T14:06:45.745Z,68.28
2022-08-20T14:09:55.425Z,68.50
2022-08-20T14:12:59.447Z,68.65
2022-08-20T14:16:02.355Z,68.69
2022-08-20T14:19:05.966Z,68.69
2022-08-20T14:22:08.990Z,68.75
2022-08-20T14:25:14.266Z,68.67
2022-08-20T14:28:20.435Z,68.60
2022-08-20T14:31:23.300Z,68.64
2022-08-20T14:34:26.246Z,68.62
2022-08-20T14:37:34.836Z,68.70
2022-08-20T14:40:37.835Z,68.59
2022-08-20T14:43:40.788Z,68.60
2022-08-20T14:46:43.726Z,68.64
2022-08-20T14:49:48.179Z,68.67
2022-08-20T14:52:51.624Z,68.78
2022-08-20T14:55:54.555Z,68.84
2022-08-20T14:58:57.395Z,68.87
2022-08-20T15:02:00.801Z,68.63
2022-08-20T15:05:06.951Z,68.65
2022-08-20T15:08:11.037Z,68.70
2022-08-20T15:11:14.435Z,68.72
2022-08-20T15:14:18.535Z,68.91
2022-08-20T15:17:27.082Z,68.89
2022-08-20T15:20:32.421Z,69.04
2022-08-20T15:23:35.334Z,68.96
2022-08-20T15:26:38.377Z,68.97
2022-08-20T15:29:41.972Z,68.90
2022-08-20T15:32:45.226Z,69.09
2022-08-20T15:35:48.147Z,68.68
2022-08-20T15:38:51.214Z,68.81
2022-08-20T15:41:54.096Z,68.75
2022-08-20T15:44:57.583Z,68.69
2022-08-20T15:48:19.281Z,68.69
2022-08-20T15:51:33.197Z,68.80
2022-08-20T15:54:36.681Z,68.75
2022-08-20T15:57:53.085Z,68.86
2022-08-20T16:01:24.536Z,68.89
2022-08-20T16:04:56.968Z,68.82
2022-08-20T16:08:18.112Z,68.99
2022-08-20T16:11:33.315Z,69.10
2022-08-20T16:14:45.258Z,68.89
2022-08-20T16:17:58.268Z,68.84
2022-08-20T16:21:06.013Z,68.85
2022-08-20T16:24:12.866Z,68.86
2022-08-20T16:27:33.080Z,68.85
2022-08-20T16:30:39.079Z,68.92
2022-08-20T16:33:51.102Z,68.73
2022-08-20T16:37:04.279Z,68.85
2022-08-20T16:40:30.052Z,68.96
2022-08-20T16:43:40.136Z,68.99
2022-08-20T16:46:52.118Z,68.89
2022-08-20T16:50:20.477Z,68.90
2022-08-20T16:53:25.680Z,69.14
2022-08-20T16:56:37.934Z,69.09
2022-08-20T17:00:05.615Z,69.04
2022-08-20T17:03:31.734Z,69.17
2022-08-20T17:06:47.084Z,69.17
2022-08-20T17:09:50.345Z,69.18
2022-08-20T17:13:00.056Z,69.19
2022-08-20T17:16:17.151Z,69.23
2022-08-20T17:19:30.615Z,69.17
2022-08-20T17:22:42.661Z,69.44
2022-08-20T17:25:56.463Z,69.43
2022-08-20T17:29:03.040Z,69.45
2022-08-20T17:32:16.762Z,69.36
2022-08-20T17:35:28.993Z,69.52
2022-08-20T17:38:41.341Z,69.66
2022-08-20T17:41:49.122Z,69.38
2022-08-20T17:45:04.411Z,69.31
2022-08-20T17:48:13.733Z,69.50
2022-08-20T17:51:19.852Z,69.55
2022-08-20T17:54:41.521Z,69.60
2022-08-20T17:57:48.065Z,69.54
2022-08-20T18:00:51.117Z,69.51
2022-08-20T18:03:54.627Z,69.50
2022-08-20T18:07:17.137Z,69.59
2022-08-20T18:10:26.861Z,69.57
2022-08-20T18:13:44.855Z,69.81
2022-08-20T18:17:30.087Z,69.87
2022-08-20T18:20:54.478Z,69.74
2022-08-20T18:24:14.942Z,69.81
2022-08-20T18:27:22.508Z,69.82
2022-08-20T18:30:26.864Z,69.84
2022-08-20T18:33:40.882Z,69.94
2022-08-20T18:37:00.545Z,69.95
2022-08-20T18:40:14.496Z,70.03
2022-08-20T18:43:27.914Z,69.90
2022-08-20T18:46:31.465Z,70.12
2022-08-20T18:49:37.806Z,70.11
2022-08-20T18:52:46.830Z,70.16
2022-08-20T18:56:11.094Z,70.31
2022-08-20T18:59:18.981Z,70.50
2022-08-20T19:02:32.475Z,70.47
2022-08-20T19:06:06.044Z,70.54
2022-08-20T19:09:38.447Z,70.52
2022-08-20T19:12:41.242Z,70.41
2022-08-20T19:15:55.265Z,70.53
2022-08-20T19:18:58.558Z,70.49
2022-08-20T19:22:02.662Z,70.51
2022-08-20T19:25:06.639Z,70.47
2022-08-20T19:28:40.018Z,70.41
2022-08-20T19:31:43.459Z,70.32
2022-08-20T19:35:17.113Z,70.21
2022-08-20T19:38:21.502Z,70.15
2022-08-20T19:41:31.277Z,70.17
2022-08-20T19:44:42.212Z,70.17
2022-08-20T19:47:57.008Z,70.41
2022-08-20T19:51:20.477Z,70.20
2022-08-20T19:54:27.734Z,70.29
2022-08-20T19:57:30.850Z,70.48
2022-08-20T20:00:47.748Z,70.40
2022-08-20T20:03:57.840Z,70.38
2022-08-20T20:07:00.893Z,70.51
2022-08-20T20:10:07.605Z,70.40
2022-08-20T20:13:18.164Z,70.64
2022-08-20T20:16:21.858Z,70.68
2022-08-20T20:19:27.562Z,70.57
2022-08-20T20:22:53.819Z,70.64
2022-08-20T20:26:01.791Z,70.70
2022-08-20T20:29:13.851Z,70.57
2022-08-20T20:32:21.836Z,70.42
2022-08-20T20:35:32.416Z,70.55
2022-08-20T20:38:39.082Z,70.54
2022-08-20T20:41:52.419Z,70.54
2022-08-20T20:44:58.555Z,70.60
2022-08-20T20:48:20.486Z,70.57
2022-08-20T20:51:23.554Z,70.61
2022-08-20T20:54:34.668Z,70.71
2022-08-20T20:57:40.622Z,70.73
2022-08-20T21:00:44.118Z,70.93
2022-08-20T21:03:47.313Z,71.11
2022-08-20T21:06:52.462Z,71.06
2022-08-20T21:09:56.540Z,70.92
2022-08-20T21:12:59.975Z,70.95
2022-08-20T21:16:03.248Z,71.12
2022-08-20T21:19:07.418Z,71.15
2022-08-20T21:22:10.348Z,71.24
2022-08-20T21:25:13.499Z,71.24
2022-08-20T21:28:17.112Z,70.83
2022-08-20T21:31:20.009Z,70.77
2022-08-20T21:34:22.886Z,70.67
2022-08-20T21:37:25.828Z,70.82
2022-08-20T21:40:28.744Z,70.86
2022-08-20T21:43:32.754Z,71.00
2022-08-20T21:46:35.995Z,70.71
2022-08-20T21:49:38.941Z,70.68
2022-08-20T21:52:42.288Z,70.49
2022-08-20T21:55:57.103Z,70.52
2022-08-20T21:59:01.183Z,70.85
2022-08-20T22:02:04.573Z,70.86
2022-08-20T22:05:07.859Z,70.82
2022-08-20T22:08:11.117Z,70.86
2022-08-20T22:11:14.488Z,70.98
2022-08-20T22:14:18.409Z,71.00
2022-08-20T22:17:21.709Z,71.02
2022-08-20T22:20:25.027Z,71.13
2022-08-20T22:23:28.530Z,71.43
2022-08-20T22:26:34.847Z,71.41
2022-08-20T22:29:38.247Z,71.34
2022-08-20T22:32:51.981Z,71.21
2022-08-20T22:35:57.600Z,71.45
2022-08-20T22:39:00.537Z,71.28
2022-08-20T22:42:03.804Z,71.06
2022-08-20T22:45:12.321Z,70.92
2022-08-20T22:48:19.613Z,70.72
2022-08-20T22:51:34.927Z,70.77
2022-08-20T22:54:38.517Z,70.60
2022-08-20T22:57:47.829Z,70.85
2022-08-20T23:00:51.378Z,70.74
2022-08-20T23:04:02.969Z,70.94
2022-08-20T23:07:10.015Z,71.15
2022-08-20T23:10:15.920Z,71.27
2022-08-20T23:13:18.847Z,71.43
2022-08-20T23:16:21.736Z,71.39
2022-08-20T23:19:24.631Z,71.44
2022-08-20T23:22:27.562Z,71.53
2022-08-20T23:25:30.794Z,71.59
2022-08-20T23:28:33.834Z,71.69
2022-08-20T23:31:36.697Z,71.71
2022-08-20T23:34:40.139Z,71.61
2022-08-20T23:37:54.961Z,71.60
2022-08-20T23:40:57.838Z,71.47
2022-08-20T23:44:00.914Z,71.44
2022-08-20T23:47:04.320Z,71.39
2022-08-20T23:50:11.362Z,71.54
2022-08-20T23:53:14.343Z,71.41
2022-08-20T23:56:17.471Z,71.42
2022-08-20T23:59:20.409Z,71.43
